sensor_id;sensor_type;location;lat;lon;timestamp;pressure;altitude;pressure_sealevel;temperature;humidity
70011;BME280;59543;37.950;-122.338;2022-08-05T00:02:04;101060.53;;;23.87;51.10
70011;BME280;59543;37.950;-122.338;2022-08-05T00:04:30;101045.66;;;23.76;52.50
70011;BME280;59543;37.950;-122.338;2022-08-05T00:06:56;101050.09;;;23.77;51.33
70011;BME280;59543;37.950;-122.338;2022-08-05T00:09:22;101053.69;;;23.09;52.61
70011;BME280;59543;37.950;-122.338;2022-08-05T00:11:49;101050.31;;;23.32;53.03
70011;BME280;59543;37.950;-122.338;2022-08-05T00:14:16;101047.94;;;22.86;53.46
70011;BME280;59543;37.950;-122.338;2022-08-05T00:16:43;101053.13;;;23.00;54.31
70011;BME280;59543;37.950;-122.338;2022-08-05T00:19:10;101039.88;;;22.91;54.17
70011;BME280;59543;37.950;-122.338;2022-08-05T00:21:36;101043.34;;;23.11;54.49
70011;BME280;59543;37.950;-122.338;2022-08-05T00:24:03;101037.09;;;22.97;54.08
70011;BME280;59543;37.950;-122.338;2022-08-05T00:26:30;101037.06;;;22.41;54.42
70011;BME280;59543;37.950;-122.338;2022-08-05T00:28:56;101042.03;;;22.12;55.78
70011;BME280;59543;37.950;-122.338;2022-08-05T00:31:22;101030.97;;;21.87;56.28
70011;BME280;59543;37.950;-122.338;2022-08-05T00:33:48;101021.03;;;21.99;56.10
70011;BME280;59543;37.950;-122.338;2022-08-05T00:36:15;101023.94;;;22.18;56.11
70011;BME280;59543;37.950;-122.338;2022-08-05T00:38:41;101027.50;;;22.18;55.53
70011;BME280;59543;37.950;-122.338;2022-08-05T00:41:08;101025.81;;;22.10;56.15
70011;BME280;59543;37.950;-122.338;2022-08-05T00:43:34;101028.09;;;21.75;56.58
70011;BME280;59543;37.950;-122.338;2022-08-05T00:46:01;101033.41;;;21.50;57.41
70011;BME280;59543;37.950;-122.338;2022-08-05T00:48:28;101041.41;;;21.52;57.96
70011;BME280;59543;37.950;-122.338;2022-08-05T00:50:54;101031.31;;;21.26;58.19
70011;BME280;59543;37.950;-122.338;2022-08-05T00:53:22;101032.16;;;21.39;58.14
70011;BME280;59543;37.950;-122.338;2022-08-05T00:55:49;101028.16;;;21.29;58.67
70011;BME280;59543;37.950;-122.338;2022-08-05T00:58:16;101028.56;;;21.26;58.40
70011;BME280;59543;37.950;-122.338;2022-08-05T01:00:42;101035.09;;;21.51;57.90
70011;BME280;59543;37.950;-122.338;2022-08-05T01:03:10;101042.69;;;21.36;58.11
70011;BME280;59543;37.950;-122.338;2022-08-05T01:05:36;101039.47;;;21.59;58.70
70011;BME280;59543;37.950;-122.338;2022-08-05T01:08:04;101037.66;;;21.39;58.26
70011;BME280;59543;37.950;-122.338;2022-08-05T01:10:40;101036.69;;;21.72;57.85
70011;BME280;59543;37.950;-122.338;2022-08-05T01:13:17;101038.13;;;21.88;57.56
70011;BME280;59543;37.950;-122.338;2022-08-05T01:15:52;101038.44;;;21.66;58.02
70011;BME280;59543;37.950;-122.338;2022-08-05T01:18:24;101046.66;;;21.46;58.46
70011;BME280;59543;37.950;-122.338;2022-08-05T01:23:50;101057.00;;;21.05;59.61
70011;BME280;59543;37.950;-122.338;2022-08-05T01:29:28;101045.41;;;20.96;60.46
70011;BME280;59543;37.950;-122.338;2022-08-05T01:32:00;101054.66;;;20.82;60.46
70011;BME280;59543;37.950;-122.338;2022-08-05T01:34:31;101051.72;;;20.83;60.71
70011;BME280;59543;37.950;-122.338;2022-08-05T01:37:06;101058.25;;;20.82;60.79
70011;BME280;59543;37.950;-122.338;2022-08-05T01:39:35;101052.53;;;20.64;60.97
70011;BME280;59543;37.950;-122.338;2022-08-05T01:42:05;101047.94;;;20.91;60.76
70011;BME280;59543;37.950;-122.338;2022-08-05T01:44:32;101040.97;;;20.82;60.72
70011;BME280;59543;37.950;-122.338;2022-08-05T01:47:00;101033.22;;;20.92;60.52
70011;BME280;59543;37.950;-122.338;2022-08-05T01:49:28;101029.22;;;20.88;60.38
70011;BME280;59543;37.950;-122.338;2022-08-05T01:52:00;101037.41;;;20.88;60.13
70011;BME280;59543;37.950;-122.338;2022-08-05T01:54:47;101037.41;;;20.68;60.96
70011;BME280;59543;37.950;-122.338;2022-08-05T01:57:19;101042.03;;;20.74;60.68
70011;BME280;59543;37.950;-122.338;2022-08-05T01:59:50;101044.56;;;20.69;60.79
70011;BME280;59543;37.950;-122.338;2022-08-05T02:02:19;101052.53;;;20.57;60.83
70011;BME280;59543;37.950;-122.338;2022-08-05T02:04:46;101053.31;;;20.44;61.73
70011;BME280;59543;37.950;-122.338;2022-08-05T02:07:13;101055.97;;;20.24;62.20
70011;BME280;59543;37.950;-122.338;2022-08-05T02:09:40;101055.97;;;20.24;62.35
70011;BME280;59543;37.950;-122.338;2022-08-05T02:12:11;101058.75;;;20.38;62.04
70011;BME280;59543;37.950;-122.338;2022-08-05T02:14:52;101048.91;;;20.43;61.58
70011;BME280;59543;37.950;-122.338;2022-08-05T02:17:28;101053.16;;;20.59;60.65
70011;BME280;59543;37.950;-122.338;2022-08-05T02:19:59;101051.69;;;20.57;60.91
70011;BME280;59543;37.950;-122.338;2022-08-05T02:22:33;101052.81;;;20.14;61.67
70011;BME280;59543;37.950;-122.338;2022-08-05T02:25:07;101065.22;;;20.23;61.98
70011;BME280;59543;37.950;-122.338;2022-08-05T02:27:39;101071.63;;;19.96;62.40
70011;BME280;59543;37.950;-122.338;2022-08-05T02:30:09;101075.84;;;19.98;62.17
70011;BME280;59543;37.950;-122.338;2022-08-05T02:32:37;101074.94;;;20.39;61.49
70011;BME280;59543;37.950;-122.338;2022-08-05T02:35:10;101063.31;;;20.24;61.51
70011;BME280;59543;37.950;-122.338;2022-08-05T02:37:37;101065.66;;;20.33;61.41
70011;BME280;59543;37.950;-122.338;2022-08-05T02:40:06;101063.69;;;20.01;62.13
70011;BME280;59543;37.950;-122.338;2022-08-05T02:42:34;101073.25;;;19.83;62.66
70011;BME280;59543;37.950;-122.338;2022-08-05T02:45:02;101068.16;;;19.46;63.93
70011;BME280;59543;37.950;-122.338;2022-08-05T02:47:31;101068.09;;;19.39;64.07
70011;BME280;59543;37.950;-122.338;2022-08-05T02:49:58;101071.41;;;19.34;64.28
70011;BME280;59543;37.950;-122.338;2022-08-05T02:52:25;101067.94;;;19.19;64.56
70011;BME280;59543;37.950;-122.338;2022-08-05T02:54:52;101068.56;;;19.14;65.03
70011;BME280;59543;37.950;-122.338;2022-08-05T02:57:20;101065.53;;;19.03;65.46
70011;BME280;59543;37.950;-122.338;2022-08-05T02:59:48;101067.75;;;18.92;65.59
70011;BME280;59543;37.950;-122.338;2022-08-05T03:02:19;101070.78;;;18.83;66.01
70011;BME280;59543;37.950;-122.338;2022-08-05T03:04:49;101060.66;;;18.77;66.37
70011;BME280;59543;37.950;-122.338;2022-08-05T03:07:17;101065.34;;;18.46;67.15
70011;BME280;59543;37.950;-122.338;2022-08-05T03:09:44;101077.41;;;18.37;67.58
70011;BME280;59543;37.950;-122.338;2022-08-05T03:12:28;101068.88;;;18.25;67.87
70011;BME280;59543;37.950;-122.338;2022-08-05T03:14:55;101070.22;;;18.30;67.99
70011;BME280;59543;37.950;-122.338;2022-08-05T03:17:21;101076.22;;;18.25;67.91
70011;BME280;59543;37.950;-122.338;2022-08-05T03:19:48;101073.59;;;18.17;68.17
70011;BME280;59543;37.950;-122.338;2022-08-05T03:22:14;101075.88;;;18.13;68.61
70011;BME280;59543;37.950;-122.338;2022-08-05T03:24:41;101069.09;;;18.24;68.69
70011;BME280;59543;37.950;-122.338;2022-08-05T03:27:09;101070.78;;;18.25;68.56
70011;BME280;59543;37.950;-122.338;2022-08-05T03:29:36;101068.75;;;18.12;68.68
70011;BME280;59543;37.950;-122.338;2022-08-05T03:32:04;101072.03;;;18.08;68.89
70011;BME280;59543;37.950;-122.338;2022-08-05T03:34:31;101074.66;;;18.01;69.06
70011;BME280;59543;37.950;-122.338;2022-08-05T03:36:58;101065.28;;;18.03;68.58
70011;BME280;59543;37.950;-122.338;2022-08-05T03:39:24;101075.13;;;17.90;69.01
70011;BME280;59543;37.950;-122.338;2022-08-05T03:41:50;101076.84;;;17.91;69.40
70011;BME280;59543;37.950;-122.338;2022-08-05T03:44:16;101076.34;;;17.72;69.71
70011;BME280;59543;37.950;-122.338;2022-08-05T03:46:42;101085.34;;;17.73;70.03
70011;BME280;59543;37.950;-122.338;2022-08-05T03:49:09;101087.69;;;17.76;69.77
70011;BME280;59543;37.950;-122.338;2022-08-05T03:51:59;101088.81;;;17.67;70.08
70011;BME280;59543;37.950;-122.338;2022-08-05T03:54:34;101086.47;;;17.64;70.53
70011;BME280;59543;37.950;-122.338;2022-08-05T03:57:03;101093.22;;;17.53;71.04
70011;BME280;59543;37.950;-122.338;2022-08-05T03:59:52;101101.72;;;17.35;71.44
70011;BME280;59543;37.950;-122.338;2022-08-05T04:02:24;101094.53;;;17.42;71.22
70011;BME280;59543;37.950;-122.338;2022-08-05T04:04:52;101099.38;;;17.32;71.79
70011;BME280;59543;37.950;-122.338;2022-08-05T04:07:19;101105.47;;;17.34;71.40
70011;BME280;59543;37.950;-122.338;2022-08-05T04:09:46;101106.78;;;17.38;70.99
70011;BME280;59543;37.950;-122.338;2022-08-05T04:12:13;101109.97;;;17.42;71.24
70011;BME280;59543;37.950;-122.338;2022-08-05T04:14:40;101119.06;;;17.34;71.45
70011;BME280;59543;37.950;-122.338;2022-08-05T04:17:08;101122.25;;;17.37;71.15
70011;BME280;59543;37.950;-122.338;2022-08-05T04:19:42;101128.00;;;17.43;70.64
70011;BME280;59543;37.950;-122.338;2022-08-05T04:22:08;101125.72;;;17.31;70.96
70011;BME280;59543;37.950;-122.338;2022-08-05T04:24:36;101126.25;;;17.27;70.93
70011;BME280;59543;37.950;-122.338;2022-08-05T04:27:02;101121.53;;;17.44;70.91
70011;BME280;59543;37.950;-122.338;2022-08-05T04:29:28;101129.34;;;17.24;71.35
70011;BME280;59543;37.950;-122.338;2022-08-05T04:31:55;101123.22;;;17.30;71.14
70011;BME280;59543;37.950;-122.338;2022-08-05T04:34:21;101127.44;;;17.09;72.03
70011;BME280;59543;37.950;-122.338;2022-08-05T04:36:47;101122.75;;;17.03;72.08
70011;BME280;59543;37.950;-122.338;2022-08-05T04:39:13;101124.06;;;17.07;71.68
70011;BME280;59543;37.950;-122.338;2022-08-05T04:41:39;101116.16;;;16.98;72.35
70011;BME280;59543;37.950;-122.338;2022-08-05T04:44:06;101116.47;;;17.03;72.08
70011;BME280;59543;37.950;-122.338;2022-08-05T04:46:32;101116.69;;;16.93;72.46
70011;BME280;59543;37.950;-122.338;2022-08-05T04:48:58;101115.31;;;16.97;72.66
70011;BME280;59543;37.950;-122.338;2022-08-05T04:51:25;101125.47;;;17.03;72.48
70011;BME280;59543;37.950;-122.338;2022-08-05T04:53:51;101113.97;;;16.93;72.98
70011;BME280;59543;37.950;-122.338;2022-08-05T04:56:17;101118.69;;;16.99;72.68
70011;BME280;59543;37.950;-122.338;2022-08-05T04:58:44;101130.84;;;16.88;73.00
70011;BME280;59543;37.950;-122.338;2022-08-05T05:01:10;101142.34;;;16.90;72.86
70011;BME280;59543;37.950;-122.338;2022-08-05T05:03:36;101138.31;;;16.86;72.75
70011;BME280;59543;37.950;-122.338;2022-08-05T05:06:02;101144.47;;;16.80;73.49
70011;BME280;59543;37.950;-122.338;2022-08-05T05:08:28;101140.00;;;16.87;73.30
70011;BME280;59543;37.950;-122.338;2022-08-05T05:10:55;101137.47;;;16.86;73.71
70011;BME280;59543;37.950;-122.338;2022-08-05T05:13:21;101138.50;;;16.85;73.73
70011;BME280;59543;37.950;-122.338;2022-08-05T05:15:47;101138.88;;;16.82;73.35
70011;BME280;59543;37.950;-122.338;2022-08-05T05:18:14;101134.09;;;16.84;73.33
70011;BME280;59543;37.950;-122.338;2022-08-05T05:20:45;101149.84;;;16.88;73.24
70011;BME280;59543;37.950;-122.338;2022-08-05T05:23:12;101148.47;;;16.92;73.18
70011;BME280;59543;37.950;-122.338;2022-08-05T05:25:42;101152.81;;;16.79;73.40
70011;BME280;59543;37.950;-122.338;2022-08-05T05:28:10;101148.41;;;16.69;73.73
70011;BME280;59543;37.950;-122.338;2022-08-05T05:30:38;101153.31;;;16.74;73.81
70011;BME280;59543;37.950;-122.338;2022-08-05T05:33:06;101148.03;;;16.73;73.80
70011;BME280;59543;37.950;-122.338;2022-08-05T05:35:33;101150.25;;;16.77;73.72
70011;BME280;59543;37.950;-122.338;2022-08-05T05:38:00;101149.28;;;16.70;73.87
70011;BME280;59543;37.950;-122.338;2022-08-05T05:40:29;101155.53;;;16.71;73.89
70011;BME280;59543;37.950;-122.338;2022-08-05T05:42:56;101159.25;;;16.69;73.51
70011;BME280;59543;37.950;-122.338;2022-08-05T05:45:22;101149.75;;;16.82;73.05
70011;BME280;59543;37.950;-122.338;2022-08-05T05:47:48;101148.34;;;16.86;72.62
70011;BME280;59543;37.950;-122.338;2022-08-05T05:50:17;101140.72;;;16.81;72.59
70011;BME280;59543;37.950;-122.338;2022-08-05T05:52:45;101140.72;;;16.81;72.37
70011;BME280;59543;37.950;-122.338;2022-08-05T05:55:13;101149.44;;;16.77;72.66
70011;BME280;59543;37.950;-122.338;2022-08-05T05:57:42;101140.31;;;16.61;73.39
70011;BME280;59543;37.950;-122.338;2022-08-05T06:00:12;101147.56;;;16.69;73.08
70011;BME280;59543;37.950;-122.338;2022-08-05T06:02:38;101154.19;;;16.66;73.39
70011;BME280;59543;37.950;-122.338;2022-08-05T06:05:09;101150.94;;;16.71;73.08
70011;BME280;59543;37.950;-122.338;2022-08-05T06:07:36;101145.88;;;16.68;73.03
70011;BME280;59543;37.950;-122.338;2022-08-05T06:10:04;101147.75;;;16.76;72.88
70011;BME280;59543;37.950;-122.338;2022-08-05T06:12:31;101147.75;;;16.76;72.94
70011;BME280;59543;37.950;-122.338;2022-08-05T06:14:57;101151.00;;;16.63;73.72
70011;BME280;59543;37.950;-122.338;2022-08-05T06:17:25;101151.84;;;16.63;73.54
70011;BME280;59543;37.950;-122.338;2022-08-05T06:19:51;101147.44;;;16.62;73.79
70011;BME280;59543;37.950;-122.338;2022-08-05T06:22:28;101150.47;;;16.76;73.35
70011;BME280;59543;37.950;-122.338;2022-08-05T06:24:55;101137.41;;;16.63;73.96
70011;BME280;59543;37.950;-122.338;2022-08-05T06:27:21;101145.41;;;16.64;73.66
70011;BME280;59543;37.950;-122.338;2022-08-05T06:29:47;101140.44;;;16.68;73.92
70011;BME280;59543;37.950;-122.338;2022-08-05T06:32:14;101143.84;;;16.70;73.68
70011;BME280;59543;37.950;-122.338;2022-08-05T06:34:40;101140.31;;;16.61;73.88
70011;BME280;59543;37.950;-122.338;2022-08-05T06:37:06;101147.66;;;16.53;74.04
70011;BME280;59543;37.950;-122.338;2022-08-05T06:39:35;101146.81;;;16.52;74.19
70011;BME280;59543;37.950;-122.338;2022-08-05T06:42:04;101151.06;;;16.55;74.53
70011;BME280;59543;37.950;-122.338;2022-08-05T06:44:30;101145.19;;;16.43;74.81
70011;BME280;59543;37.950;-122.338;2022-08-05T06:46:56;101137.41;;;16.32;75.29
70011;BME280;59543;37.950;-122.338;2022-08-05T06:49:23;101146.19;;;16.42;74.76
70011;BME280;59543;37.950;-122.338;2022-08-05T06:51:50;101147.91;;;16.43;74.33
70011;BME280;59543;37.950;-122.338;2022-08-05T06:54:16;101150.53;;;16.51;73.85
70011;BME280;59543;37.950;-122.338;2022-08-05T06:56:43;101137.69;;;16.45;74.31
70011;BME280;59543;37.950;-122.338;2022-08-05T06:59:09;101135.97;;;16.52;74.24
70011;BME280;59543;37.950;-122.338;2022-08-05T07:01:39;101136.88;;;16.36;74.65
70011;BME280;59543;37.950;-122.338;2022-08-05T07:04:05;101139.44;;;16.38;74.57
70011;BME280;59543;37.950;-122.338;2022-08-05T07:06:31;101147.25;;;16.33;74.81
70011;BME280;59543;37.950;-122.338;2022-08-05T07:08:58;101143.81;;;16.39;74.56
70011;BME280;59543;37.950;-122.338;2022-08-05T07:11:25;101139.88;;;16.50;74.34
70011;BME280;59543;37.950;-122.338;2022-08-05T07:13:53;101138.00;;;16.50;74.03
70011;BME280;59543;37.950;-122.338;2022-08-05T07:16:37;101139.69;;;16.51;73.96
70011;BME280;59543;37.950;-122.338;2022-08-05T07:19:19;101139.97;;;16.64;73.21
70011;BME280;59543;37.950;-122.338;2022-08-05T07:21:46;101141.22;;;16.45;74.04
70011;BME280;59543;37.950;-122.338;2022-08-05T07:24:14;101141.41;;;16.52;73.94
70011;BME280;59543;37.950;-122.338;2022-08-05T07:26:41;101145.78;;;16.53;73.64
70011;BME280;59543;37.950;-122.338;2022-08-05T07:29:08;101145.13;;;16.51;73.94
70011;BME280;59543;37.950;-122.338;2022-08-05T07:31:34;101146.66;;;16.45;74.03
70011;BME280;59543;37.950;-122.338;2022-08-05T07:34:00;101150.88;;;16.56;74.20
70011;BME280;59543;37.950;-122.338;2022-08-05T07:36:27;101154.41;;;16.57;73.70
70011;BME280;59543;37.950;-122.338;2022-08-05T07:38:54;101153.59;;;16.56;74.00
70011;BME280;59543;37.950;-122.338;2022-08-05T07:41:22;101151.00;;;16.63;73.23
70011;BME280;59543;37.950;-122.338;2022-08-05T07:43:49;101151.34;;;16.60;73.46
70011;BME280;59543;37.950;-122.338;2022-08-05T07:46:15;101162.41;;;16.58;73.41
70011;BME280;59543;37.950;-122.338;2022-08-05T07:48:41;101158.66;;;16.59;73.08
70011;BME280;59543;37.950;-122.338;2022-08-05T07:51:08;101164.03;;;16.76;72.76
70011;BME280;59543;37.950;-122.338;2022-08-05T07:53:34;101156.63;;;16.61;72.76
70011;BME280;59543;37.950;-122.338;2022-08-05T07:56:05;101158.66;;;16.59;73.15
70011;BME280;59543;37.950;-122.338;2022-08-05T07:58:32;101151.84;;;16.63;73.07
70011;BME280;59543;37.950;-122.338;2022-08-05T08:00:58;101157.59;;;16.68;73.13
70011;BME280;59543;37.950;-122.338;2022-08-05T08:03:25;101147.56;;;16.69;73.37
70011;BME280;59543;37.950;-122.338;2022-08-05T08:05:51;101147.75;;;16.67;73.50
70011;BME280;59543;37.950;-122.338;2022-08-05T08:08:17;101153.34;;;16.66;73.65
70011;BME280;59543;37.950;-122.338;2022-08-05T08:10:44;101156.25;;;16.64;73.71
70011;BME280;59543;37.950;-122.338;2022-08-05T08:13:10;101163.84;;;16.69;73.34
70011;BME280;59543;37.950;-122.338;2022-08-05T08:15:37;101155.53;;;16.71;73.21
70011;BME280;59543;37.950;-122.338;2022-08-05T08:18:04;101149.78;;;16.65;73.36
70011;BME280;59543;37.950;-122.338;2022-08-05T08:20:30;101144.56;;;16.64;73.23
70011;BME280;59543;37.950;-122.338;2022-08-05T08:22:57;101142.47;;;16.66;73.18
70011;BME280;59543;37.950;-122.338;2022-08-05T08:25:26;101147.06;;;16.65;73.15
70011;BME280;59543;37.950;-122.338;2022-08-05T08:27:55;101146.75;;;16.60;73.52
70011;BME280;59543;37.950;-122.338;2022-08-05T08:30:21;101150.13;;;16.71;73.18
70011;BME280;59543;37.950;-122.338;2022-08-05T08:32:48;101146.16;;;16.81;72.36
70011;BME280;59543;37.950;-122.338;2022-08-05T08:35:14;101143.28;;;16.83;72.70
70011;BME280;59543;37.950;-122.338;2022-08-05T08:37:40;101144.47;;;16.72;73.13
70011;BME280;59543;37.950;-122.338;2022-08-05T08:40:07;101146.03;;;16.66;72.87
70011;BME280;59543;37.950;-122.338;2022-08-05T08:42:33;101147.03;;;16.74;72.85
70011;BME280;59543;37.950;-122.338;2022-08-05T08:45:02;101136.75;;;16.61;73.30
70011;BME280;59543;37.950;-122.338;2022-08-05T08:47:29;101140.81;;;16.65;73.37
70011;BME280;59543;37.950;-122.338;2022-08-05T08:49:57;101146.72;;;16.68;72.82
70011;BME280;59543;37.950;-122.338;2022-08-05T08:52:26;101139.25;;;16.71;72.94
70011;BME280;59543;37.950;-122.338;2022-08-05T08:54:54;101143.16;;;16.68;72.51
70011;BME280;59543;37.950;-122.338;2022-08-05T08:57:22;101145.53;;;16.71;72.95
70011;BME280;59543;37.950;-122.338;2022-08-05T08:59:49;101149.44;;;16.68;72.70
70011;BME280;59543;37.950;-122.338;2022-08-05T09:02:18;101147.38;;;16.79;72.32
70011;BME280;59543;37.950;-122.338;2022-08-05T09:04:45;101152.81;;;16.79;72.70
70011;BME280;59543;37.950;-122.338;2022-08-05T09:07:12;101153.78;;;16.86;72.12
70011;BME280;59543;37.950;-122.338;2022-08-05T09:09:38;101150.28;;;16.69;73.12
70011;BME280;59543;37.950;-122.338;2022-08-05T09:12:07;101146.16;;;16.81;72.82
70011;BME280;59543;37.950;-122.338;2022-08-05T09:14:34;101152.47;;;16.82;72.72
70011;BME280;59543;37.950;-122.338;2022-08-05T09:17:07;101153.47;;;16.73;73.09
70011;BME280;59543;37.950;-122.338;2022-08-05T09:19:34;101157.22;;;16.72;73.11
70011;BME280;59543;37.950;-122.338;2022-08-05T09:22:01;101153.84;;;16.69;73.35
70011;BME280;59543;37.950;-122.338;2022-08-05T09:24:27;101167.03;;;16.81;72.67
70011;BME280;59543;37.950;-122.338;2022-08-05T09:26:55;101166.56;;;16.77;72.62
70011;BME280;59543;37.950;-122.338;2022-08-05T09:29:37;101166.22;;;16.80;72.78
70011;BME280;59543;37.950;-122.338;2022-08-05T09:32:06;101160.66;;;16.65;73.86
70011;BME280;59543;37.950;-122.338;2022-08-05T09:34:49;101164.41;;;16.64;73.84
70011;BME280;59543;37.950;-122.338;2022-08-05T09:37:17;101157.94;;;16.65;73.87
70011;BME280;59543;37.950;-122.338;2022-08-05T09:39:44;101171.72;;;16.64;74.18
70011;BME280;59543;37.950;-122.338;2022-08-05T09:42:11;101178.22;;;16.55;74.79
70011;BME280;59543;37.950;-122.338;2022-08-05T09:44:50;101169.53;;;16.59;73.82
70011;BME280;59543;37.950;-122.338;2022-08-05T09:47:22;101178.50;;;16.60;74.19
70011;BME280;59543;37.950;-122.338;2022-08-05T09:49:55;101181.44;;;16.50;74.18
70011;BME280;59543;37.950;-122.338;2022-08-05T09:55:09;101180.22;;;16.61;73.69
70011;BME280;59543;37.950;-122.338;2022-08-05T10:00:12;101193.16;;;16.51;73.57
70011;BME280;59543;37.950;-122.338;2022-08-05T10:02:41;101195.06;;;16.42;74.09
70011;BME280;59543;37.950;-122.338;2022-08-05T10:07:46;101186.19;;;16.48;74.00
70011;BME280;59543;37.950;-122.338;2022-08-05T10:10:13;101194.69;;;16.45;74.26
70011;BME280;59543;37.950;-122.338;2022-08-05T10:12:45;101184.66;;;16.54;73.82
70011;BME280;59543;37.950;-122.338;2022-08-05T10:18:14;101181.81;;;16.47;73.97
70011;BME280;59543;37.950;-122.338;2022-08-05T10:20:44;101182.50;;;16.41;74.31
70011;BME280;59543;37.950;-122.338;2022-08-05T10:23:13;101179.13;;;16.39;73.86
70011;BME280;59543;37.950;-122.338;2022-08-05T10:25:39;101184.25;;;16.34;74.04
70011;BME280;59543;37.950;-122.338;2022-08-05T10:28:06;101184.97;;;16.28;74.52
70011;BME280;59543;37.950;-122.338;2022-08-05T10:30:34;101183.25;;;16.27;74.56
70011;BME280;59543;37.950;-122.338;2022-08-05T10:33:02;101186.31;;;16.23;74.66
70011;BME280;59543;37.950;-122.338;2022-08-05T10:35:32;101186.78;;;16.27;74.39
70011;BME280;59543;37.950;-122.338;2022-08-05T10:37:58;101187.25;;;16.39;73.87
70011;BME280;59543;37.950;-122.338;2022-08-05T10:43:06;101190.53;;;16.26;74.48
70011;BME280;59543;37.950;-122.338;2022-08-05T10:45:34;101192.03;;;16.37;74.17
70011;BME280;59543;37.950;-122.338;2022-08-05T10:51:08;101196.94;;;16.33;74.09
70011;BME280;59543;37.950;-122.338;2022-08-05T10:53:55;101200.06;;;16.22;74.34
70011;BME280;59543;37.950;-122.338;2022-08-05T10:56:26;101200.72;;;16.24;74.33
70011;BME280;59543;37.950;-122.338;2022-08-05T11:01:35;101211.56;;;16.32;74.41
70011;BME280;59543;37.950;-122.338;2022-08-05T11:06:33;101204.09;;;16.34;74.03
70011;BME280;59543;37.950;-122.338;2022-08-05T11:09:17;101201.59;;;16.25;74.33
70011;BME280;59543;37.950;-122.338;2022-08-05T11:11:46;101202.63;;;16.15;74.61
70011;BME280;59543;37.950;-122.338;2022-08-05T11:14:23;101201.97;;;16.13;74.64
70011;BME280;59543;37.950;-122.338;2022-08-05T11:17:27;101209.41;;;16.19;74.39
70011;BME280;59543;37.950;-122.338;2022-08-05T11:19:54;101206.34;;;16.14;74.74
70011;BME280;59543;37.950;-122.338;2022-08-05T11:25:31;101213.56;;;16.38;74.02
70011;BME280;59543;37.950;-122.338;2022-08-05T11:33:37;101208.97;;;16.39;73.98
70011;BME280;59543;37.950;-122.338;2022-08-05T11:36:09;101210.38;;;16.35;74.04
70011;BME280;59543;37.950;-122.338;2022-08-05T11:41:15;101204.44;;;16.31;74.08
70011;BME280;59543;37.950;-122.338;2022-08-05T11:43:44;101209.38;;;16.28;74.07
70011;BME280;59543;37.950;-122.338;2022-08-05T11:46:24;101213.78;;;16.29;73.85
70011;BME280;59543;37.950;-122.338;2022-08-05T11:48:50;101216.16;;;16.23;73.92
70011;BME280;59543;37.950;-122.338;2022-08-05T11:51:16;101216.16;;;16.23;74.01
70011;BME280;59543;37.950;-122.338;2022-08-05T11:53:43;101220.59;;;16.25;73.87
70011;BME280;59543;37.950;-122.338;2022-08-05T11:56:10;101229.75;;;16.23;74.03
70011;BME280;59543;37.950;-122.338;2022-08-05T11:58:39;101218.75;;;16.17;74.34
70011;BME280;59543;37.950;-122.338;2022-08-05T12:01:19;101216.84;;;16.26;73.93
70011;BME280;59543;37.950;-122.338;2022-08-05T12:03:54;101216.50;;;16.29;73.96
70011;BME280;59543;37.950;-122.338;2022-08-05T12:06:23;101218.53;;;16.27;74.20
70011;BME280;59543;37.950;-122.338;2022-08-05T12:08:56;101220.75;;;16.23;74.65
70011;BME280;59543;37.950;-122.338;2022-08-05T12:11:25;101218.72;;;16.25;74.16
70011;BME280;59543;37.950;-122.338;2022-08-05T12:13:56;101227.72;;;16.26;74.39
70011;BME280;59543;37.950;-122.338;2022-08-05T12:16:25;101225.84;;;16.26;74.23
70011;BME280;59543;37.950;-122.338;2022-08-05T12:18:52;101230.78;;;16.22;74.73
70011;BME280;59543;37.950;-122.338;2022-08-05T12:21:24;101227.56;;;16.19;74.58
70011;BME280;59543;37.950;-122.338;2022-08-05T12:26:20;101242.00;;;16.11;74.73
70011;BME280;59543;37.950;-122.338;2022-08-05T12:28:46;101239.41;;;16.18;74.71
70011;BME280;59543;37.950;-122.338;2022-08-05T12:31:13;101229.88;;;16.30;74.16
70011;BME280;59543;37.950;-122.338;2022-08-05T12:33:39;101237.53;;;16.18;74.31
70011;BME280;59543;37.950;-122.338;2022-08-05T12:36:06;101224.16;;;16.25;74.29
70011;BME280;59543;37.950;-122.338;2022-08-05T12:38:33;101232.94;;;16.27;74.26
70011;BME280;59543;37.950;-122.338;2022-08-05T12:41:00;101234.94;;;16.41;73.85
70011;BME280;59543;37.950;-122.338;2022-08-05T12:43:26;101237.28;;;16.53;73.62
70011;BME280;59543;37.950;-122.338;2022-08-05T12:45:54;101240.22;;;16.43;73.94
70011;BME280;59543;37.950;-122.338;2022-08-05T12:48:21;101239.75;;;16.23;74.42
70011;BME280;59543;37.950;-122.338;2022-08-05T12:51:10;101240.09;;;16.20;74.33
70011;BME280;59543;37.950;-122.338;2022-08-05T12:53:44;101244.00;;;16.26;74.18
70011;BME280;59543;37.950;-122.338;2022-08-05T12:56:23;101247.91;;;16.23;74.15
70011;BME280;59543;37.950;-122.338;2022-08-05T12:59:11;101253.50;;;16.21;74.10
70011;BME280;59543;37.950;-122.338;2022-08-05T13:01:42;101259.59;;;16.32;73.92
70011;BME280;59543;37.950;-122.338;2022-08-05T13:04:10;101262.31;;;16.32;73.68
70011;BME280;59543;37.950;-122.338;2022-08-05T13:06:41;101274.34;;;16.29;73.52
70011;BME280;59543;37.950;-122.338;2022-08-05T13:09:10;101270.94;;;16.27;73.24
70011;BME280;59543;37.950;-122.338;2022-08-05T13:11:39;101274.88;;;16.25;73.68